Time;durP1;ratioP1;P1;durP2;ratioP2;P2;SDS_P1;SDS_P2;PMS_P1;PMS_P2;Temp;Humidity;BMP_temperature;BMP_pressure;BME280_temperature;BME280_humidity;BME280_pressure;Samples;Min_cycle;Max_cycle;Signal;HPM_P1;HPM_P2
2023/09/19 00:01:30;;;;;;;15.60;12.20;;;;;;;-128.00;-1.00;-1.00;19074;321;7504387;-31
2023/09/19 00:03:57;;;;;;;18.30;11.20;;;;;;;-128.00;-1.00;-1.00;19056;316;7504644;-31
2023/09/19 00:06:25;;;;;;;12.10;10.90;;;;;;;-128.00;-1.00;-1.00;19070;315;7505314;-32
2023/09/19 00:08:52;;;;;;;9.70;8.70;;;;;;;-128.00;-1.00;-1.00;19081;316;7504549;-35
2023/09/19 00:11:18;;;;;;;17.30;9.70;;;;;;;-128.00;-1.00;-1.00;19064;321;7504766;-31
2023/09/19 00:13:43;;;;;;;13.70;10.40;;;;;;;-128.00;-1.00;-1.00;19064;321;7504893;-35
2023/09/19 00:16:10;;;;;;;13.60;10.50;;;;;;;-128.00;-1.00;-1.00;19059;315;7504734;-31
2023/09/19 00:18:37;;;;;;;11.10;10.10;;;;;;;-128.00;-1.00;-1.00;19052;321;7504578;-32
2023/09/19 00:21:07;;;;;;;9.00;8.20;;;;;;;-128.00;-1.00;-1.00;19059;321;7506469;-36
2023/09/19 00:23:33;;;;;;;10.50;9.50;;;;;;;-128.00;-1.00;-1.00;19090;319;7504952;-32
2023/09/19 00:26:00;;;;;;;10.80;9.70;;;;;;;-128.00;-1.00;-1.00;19452;315;7505558;-32
2023/09/19 00:28:29;;;;;;;13.20;1649.30;;;;;;;-128.00;-1.00;-1.00;19059;316;7504937;-32
2023/09/19 00:30:55;;;;;;;13.50;11.00;;;;;;;-128.00;-1.00;-1.00;19097;316;7506102;-35
2023/09/19 00:33:22;;;;;;;12.10;10.30;;;;;;;-128.00;-1.00;-1.00;19051;315;7506390;-31
2023/09/19 00:35:51;;;;;;;12.20;11.00;;;;;;;-128.00;-1.00;-1.00;19050;316;7504775;-31
2023/09/19 01:17:43;;;;;;;16.50;11.50;;;;;;;-98.77;17.98;19716.25;101396;318;1576293;-30
2023/09/19 01:20:28;;;;;;;11.80;10.60;;;;;;;-128.00;-1.00;-1.00;100252;319;1003249;-37
2023/09/19 01:23:11;;;;;;;13.10;11.50;;;;;;;-128.00;-1.00;-1.00;100770;318;1004501;-32
2023/09/19 01:26:02;;;;;;;14.40;11.70;;;;;;;-128.00;-1.00;-1.00;44610;318;7505075;-36
2023/09/19 01:28:47;;;;;;;17.00;9.80;;;;;;;-128.00;-1.00;-1.00;42239;317;7504139;-31
2023/09/19 01:31:14;;;;;;;13.70;10.80;;;;;;;-128.00;-1.00;-1.00;31325;317;7505448;-32
2023/09/19 01:34:04;;;;;;;14.90;11.60;;;;;;;-128.00;-1.00;-1.00;19429;323;7504582;-32
2023/09/19 01:36:35;;;;;;;13.60;10.30;;;;;;;-128.00;-1.00;-1.00;19044;317;7506560;-36
2023/09/19 01:39:10;;;;;;;18.10;10.70;;;;;;;-128.00;-1.00;-1.00;19065;318;7504684;-35
2023/09/19 01:42:02;;;;;;;13.30;10.90;;;;;;;-128.00;-1.00;-1.00;19036;321;7504807;-31
2023/09/19 01:44:40;;;;;;;20.30;11.00;;;;;;;-128.00;-1.00;-1.00;19037;323;7505923;-35
2023/09/19 01:47:13;;;;;;;13.50;10.60;;;;;;;-128.00;-1.00;-1.00;19009;318;7504524;-31
2023/09/19 01:49:46;;;;;;;12.70;11.10;;;;;;;-128.00;-1.00;-1.00;19050;323;7504950;-32
2023/09/19 01:52:19;;;;;;;10.70;9.10;;;;;;;-128.00;-1.00;-1.00;19004;318;7504506;-32
2023/09/19 01:54:48;;;;;;;12.40;9.80;;;;;;;-128.00;-1.00;-1.00;19012;318;7504673;-38
2023/09/19 01:57:28;;;;;;;19.00;10.50;;;;;;;-128.00;-1.00;-1.00;18998;320;7505953;-36
2023/09/19 02:00:06;;;;;;;16.20;10.60;;;;;;;-128.00;-1.00;-1.00;19035;318;7506335;-32
2023/09/19 02:02:36;;;;;;;13.00;11.50;;;;;;;-128.00;-1.00;-1.00;19040;318;7506479;-36
2023/09/19 02:05:03;;;;;;;12.80;10.70;;;;;;;-128.00;-1.00;-1.00;19063;318;7504929;-38
2023/09/19 02:07:31;;;;;;;20.50;11.50;;;;;;;-128.00;-1.00;-1.00;18989;319;7504581;-36
2023/09/19 02:10:00;;;;;;;20.40;11.80;;;;;;;-128.00;-1.00;-1.00;19019;322;7505020;-32
2023/09/19 02:12:26;;;;;;;16.80;12.60;;;;;;;-128.00;-1.00;-1.00;19012;319;7505153;-32
2023/09/19 02:14:52;;;;;;;15.10;11.40;;;;;;;-128.00;-1.00;-1.00;19040;317;7504695;-36
2023/09/19 02:17:19;;;;;;;16.00;12.20;;;;;;;-128.00;-1.00;-1.00;19437;322;7504983;-35
2023/09/19 02:19:44;;;;;;;23.70;11.20;;;;;;;-128.00;-1.00;-1.00;18987;323;7505239;-31
2023/09/19 02:22:11;;;;;;;14.70;11.80;;;;;;;-128.00;-1.00;-1.00;19454;321;7505185;-31
2023/09/19 02:24:38;;;;;;;13.40;11.10;;;;;;;-128.00;-1.00;-1.00;19441;321;7504901;-35
2023/09/19 02:27:04;;;;;;;19.80;10.70;;;;;;;-128.00;-1.00;-1.00;19012;318;7505600;-35
2023/09/19 02:29:30;;;;;;;23.60;11.60;;;;;;;-128.00;-1.00;-1.00;19031;323;7505004;-35
2023/09/19 02:31:56;;;;;;;12.40;11.10;;;;;;;-128.00;-1.00;-1.00;19015;318;7505175;-32
2023/09/19 02:34:22;;;;;;;12.30;11.10;;;;;;;-128.00;-1.00;-1.00;19011;317;7504765;-32
2023/09/19 02:36:48;;;;;;;18.10;11.10;;;;;;;-128.00;-1.00;-1.00;19002;318;7504748;-32
2023/09/19 02:39:13;;;;;;;11.00;9.80;;;;;;;-128.00;-1.00;-1.00;19002;318;7506166;-36
2023/09/19 02:41:41;;;;;;;13.60;11.20;;;;;;;-128.00;-1.00;-1.00;19410;324;7505350;-36
2023/09/19 02:44:07;;;;;;;15.60;12.40;;;;;;;-128.00;-1.00;-1.00;19016;322;7505274;-31
2023/09/19 02:46:36;;;;;;;21.90;12.90;;;;;;;-128.00;-1.00;-1.00;19005;322;7505262;-31
2023/09/19 02:49:06;;;;;;;12.90;11.00;;;;;;;-128.00;-1.00;-1.00;19021;322;7504570;-31
2023/09/19 02:51:32;;;;;;;16.00;11.10;;;;;;;-128.00;-1.00;-1.00;19023;318;7504927;-31
2023/09/19 02:54:03;;;;;;;17.00;11.20;;;;;;;-128.00;-1.00;-1.00;18981;319;7504579;-33
2023/09/19 02:56:30;;;;;;;13.60;11.70;;;;;;;-128.00;-1.00;-1.00;19002;319;7504858;-35
2023/09/19 02:58:56;;;;;;;14.50;10.70;;;;;;;-128.00;-1.00;-1.00;19024;322;7506403;-35
2023/09/19 03:01:22;;;;;;;14.60;12.70;;;;;;;-128.00;-1.00;-1.00;19011;318;7506112;-32
2023/09/19 03:03:48;;;;;;;16.00;12.00;;;;;;;-128.00;-1.00;-1.00;19031;318;7504418;-31
2023/09/19 03:06:14;;;;;;;40.10;10.10;;;;;;;-128.00;-1.00;-1.00;19018;319;7505642;-36
2023/09/19 03:08:42;;;;;;;13.40;9.90;;;;;;;-128.00;-1.00;-1.00;18994;318;7504824;-31
2023/09/19 03:11:09;;;;;;;16.20;9.30;;;;;;;-128.00;-1.00;-1.00;19012;323;7504676;-34
2023/09/19 03:13:37;;;;;;;8.80;7.50;;;;;;;-128.00;-1.00;-1.00;19017;318;7505077;-31
2023/09/19 03:16:05;;;;;;;11.70;8.50;;;;;;;-128.00;-1.00;-1.00;19011;318;7504617;-35
2023/09/19 03:18:32;;;;;;;7.50;6.40;;;;;;;-128.00;-1.00;-1.00;19008;318;7505091;-31
2023/09/19 03:20:59;;;;;;;15.60;8.60;;;;;;;-128.00;-1.00;-1.00;19004;318;7504469;-35
2023/09/19 03:23:26;;;;;;;14.50;10.10;;;;;;;-128.00;-1.00;-1.00;19005;319;7504706;-31
2023/09/19 03:25:55;;;;;;;11.80;6.40;;;;;;;-128.00;-1.00;-1.00;19001;318;7504324;-30
2023/09/19 03:28:22;;;;;;;8.50;7.60;;;;;;;-128.00;-1.00;-1.00;19009;318;7505181;-30
2023/09/19 03:31:05;;;;;;;9.80;8.80;;;;;;;-128.00;-1.00;-1.00;19021;318;7505051;-34
2023/09/19 03:33:33;;;;;;;14.60;9.90;;;;;;;-128.00;-1.00;-1.00;19036;323;7504454;-34
2023/09/19 03:36:00;;;;;;;9.10;6.00;;;;;;;-128.00;-1.00;-1.00;19019;323;7505142;-32
2023/09/19 03:38:27;;;;;;;10.40;9.30;;;;;;;-128.00;-1.00;-1.00;19013;323;7505581;-30
2023/09/19 03:40:53;;;;;;;13.90;10.40;;;;;;;-128.00;-1.00;-1.00;18997;318;7505403;-31
2023/09/19 03:43:19;;;;;;;14.60;9.60;;;;;;;-128.00;-1.00;-1.00;19426;321;7504898;-31
2023/09/19 03:45:46;;;;;;;10.00;8.90;;;;;;;-128.00;-1.00;-1.00;19431;318;7505306;-31
2023/09/19 03:48:12;;;;;;;8.30;6.80;;;;;;;-128.00;-1.00;-1.00;19006;318;7504609;-30
2023/09/19 03:50:39;;;;;;;6.40;5.40;;;;;;;-128.00;-1.00;-1.00;19030;318;7505002;-31
2023/09/19 03:53:04;;;;;;;19.30;6.30;;;;;;;-128.00;-1.00;-1.00;19021;318;7505065;-32
2023/09/19 03:55:30;;;;;;;5.20;3.40;;;;;;;-128.00;-1.00;-1.00;19011;318;7504926;-35
2023/09/19 03:57:56;;;;;;;4.90;3.90;;;;;;;-128.00;-1.00;-1.00;19031;323;7504918;-35
2023/09/19 04:00:24;;;;;;;8.60;3.80;;;;;;;-128.00;-1.00;-1.00;19008;318;7504885;-31
2023/09/19 04:02:51;;;;;;;6.60;2.90;;;;;;;-128.00;-1.00;-1.00;19022;323;7506643;-35
2023/09/19 04:05:16;;;;;;;2.10;1.90;;;;;;;-128.00;-1.00;-1.00;19018;323;7505204;-31
2023/09/19 04:07:43;;;;;;;3.70;2.80;;;;;;;-128.00;-1.00;-1.00;19456;318;7504277;-35
2023/09/19 04:10:11;;;;;;;3.90;3.00;;;;;;;-128.00;-1.00;-1.00;19416;318;7505539;-31
2023/09/19 04:12:37;;;;;;;3.70;2.00;;;;;;;-128.00;-1.00;-1.00;19017;319;7504617;-31
2023/09/19 04:15:05;;;;;;;2.50;1.80;;;;;;;-128.00;-1.00;-1.00;19010;317;7505553;-32
2023/09/19 04:17:32;;;;;;;2.40;1.80;;;;;;;-128.00;-1.00;-1.00;19011;318;7505244;-36
2023/09/19 04:19:59;;;;;;;4.20;2.20;;;;;;;-128.00;-1.00;-1.00;19096;315;7504587;-32
2023/09/19 04:22:25;;;;;;;2.80;1.50;;;;;;;-128.00;-1.00;-1.00;19123;319;7505978;-34
2023/09/19 04:24:50;;;;;;;1.80;1.20;;;;;;;-128.00;-1.00;-1.00;19019;320;7505266;-31
2023/09/19 04:27:18;;;;;;;3.80;1.10;;;;;;;-128.00;-1.00;-1.00;19511;320;7505462;-31
2023/09/19 04:29:44;;;;;;;1.70;1.30;;;;;;;-128.00;-1.00;-1.00;19084;319;7504961;-31
2023/09/19 04:32:10;;;;;;;2.60;1.80;;;;;;;-128.00;-1.00;-1.00;19102;320;7506531;-31
2023/09/19 04:34:36;;;;;;;4.60;2.00;;;;;;;-128.00;-1.00;-1.00;19100;315;7504637;-35
2023/09/19 04:37:01;;;;;;;2.80;1.80;;;;;;;-128.00;-1.00;-1.00;19769;315;7504718;-35
2023/09/19 04:39:28;;;;;;;5.40;1.60;;;;;;;-128.00;-1.00;-1.00;19098;320;7504617;-32
2023/09/19 04:41:54;;;;;;;2.10;1.50;;;;;;;-128.00;-1.00;-1.00;19101;315;7504683;-32
2023/09/19 04:44:20;;;;;;;6.70;1.50;;;;;;;-128.00;-1.00;-1.00;19064;316;7504710;-35
2023/09/19 04:46:47;;;;;;;1.80;0.80;;;;;;;-128.00;-1.00;-1.00;19095;315;7505263;-30
2023/09/19 04:49:13;;;;;;;2.00;1.50;;;;;;;-128.00;-1.00;-1.00;19086;315;7504334;-31
2023/09/19 04:51:40;;;;;;;2.50;1.20;;;;;;;-128.00;-1.00;-1.00;19067;315;7506380;-32
2023/09/19 04:54:06;;;;;;;1.40;0.80;;;;;;;-128.00;-1.00;-1.00;19105;315;7506183;-32
2023/09/19 04:56:32;;;;;;;1.40;0.70;;;;;;;-128.00;-1.00;-1.00;19031;320;7504873;-31
2023/09/19 04:58:58;;;;;;;2.70;1.60;;;;;;;-128.00;-1.00;-1.00;19065;316;7504883;-35
2023/09/19 05:01:25;;;;;;;2.40;0.90;;;;;;;-128.00;-1.00;-1.00;19083;320;7504587;-36
2023/09/19 05:03:52;;;;;;;4.80;0.80;;;;;;;-128.00;-1.00;-1.00;19094;315;7506434;-34
2023/09/19 05:06:20;;;;;;;3.10;0.80;;;;;;;-128.00;-1.00;-1.00;19062;316;7506317;-31
2023/09/19 05:08:50;;;;;;;3.20;0.70;;;;;;;-128.00;-1.00;-1.00;19078;320;7506707;-31
2023/09/19 05:11:24;;;;;;;1.30;0.60;;;;;;;-128.00;-1.00;-1.00;19101;319;7504598;-35
2023/09/19 05:13:50;;;;;;;3.70;1.50;;;;;;;-128.00;-1.00;-1.00;19099;320;7506656;-35
2023/09/19 05:16:16;;;;;;;1.20;0.80;;;;;;;-128.00;-1.00;-1.00;19088;320;7507045;-32
2023/09/19 05:18:42;;;;;;;0.50;0.40;;;;;;;-128.00;-1.00;-1.00;19102;315;7505194;-35
2023/09/19 05:21:08;;;;;;;6.20;1.10;;;;;;;-128.00;-1.00;-1.00;19080;316;7505367;-33
2023/09/19 05:23:33;;;;;;;1.10;1.00;;;;;;;-128.00;-1.00;-1.00;19085;316;7504797;-36
2023/09/19 05:25:59;;;;;;;3.90;1.00;;;;;;;-128.00;-1.00;-1.00;19060;320;7504883;-32
2023/09/19 05:28:26;;;;;;;11.00;1.00;;;;;;;-128.00;-1.00;-1.00;19070;320;7505004;-35
2023/09/19 05:30:53;;;;;;;7.40;0.70;;;;;;;-128.00;-1.00;-1.00;19081;320;7504584;-32
2023/09/19 05:33:19;;;;;;;8.80;1.60;;;;;;;-128.00;-1.00;-1.00;19063;316;7506470;-36
2023/09/19 05:35:47;;;;;;;3.80;1.40;;;;;;;-128.00;-1.00;-1.00;19095;319;7504995;-32
2023/09/19 05:38:13;;;;;;;7.50;3.80;;;;;;;-128.00;-1.00;-1.00;19088;320;7504936;-32
2023/09/19 05:40:42;;;;;;;12.20;6.00;;;;;;;-128.00;-1.00;-1.00;19021;315;7505141;-36
2023/09/19 05:43:09;;;;;;;20.10;5.20;;;;;;;-128.00;-1.00;-1.00;19089;315;7505354;-32
2023/09/19 05:45:36;;;;;;;16.40;6.70;;;;;;;-128.00;-1.00;-1.00;19088;320;7506204;-32
2023/09/19 05:48:09;;;;;;;16.90;4.40;;;;;;;-128.00;-1.00;-1.00;19082;315;7504857;-36
2023/09/19 05:50:36;;;;;;;7.70;3.40;;;;;;;-128.00;-1.00;-1.00;19079;315;7506550;-30
2023/09/19 05:53:01;;;;;;;9.70;1.50;;;;;;;-128.00;-1.00;-1.00;19092;315;7504746;-36
2023/09/19 05:55:28;;;;;;;2.30;1.20;;;;;;;-128.00;-1.00;-1.00;19070;315;7507203;-35
2023/09/19 05:57:54;;;;;;;6.80;1.60;;;;;;;-128.00;-1.00;-1.00;19093;315;7504725;-31
2023/09/19 06:00:22;;;;;;;5.10;2.60;;;;;;;-128.00;-1.00;-1.00;19114;315;7506165;-35
2023/09/19 06:02:55;;;;;;;7.20;2.30;;;;;;;-128.00;-1.00;-1.00;19096;315;7504556;-31
2023/09/19 06:05:21;;;;;;;5.40;2.10;;;;;;;-128.00;-1.00;-1.00;19092;315;7504918;-31
2023/09/19 06:07:46;;;;;;;4.80;2.50;;;;;;;-128.00;-1.00;-1.00;19059;320;7505440;-34
2023/09/19 06:10:13;;;;;;;2.20;1.30;;;;;;;-128.00;-1.00;-1.00;19089;315;7506272;-35
2023/09/19 06:12:45;;;;;;;10.90;1.50;;;;;;;-128.00;-1.00;-1.00;19088;320;7505032;-35
2023/09/19 06:17:50;;;;;;;5.80;1.30;;;;;;;-128.00;-1.00;-1.00;19125;320;7505119;-32
2023/09/19 06:20:16;;;;;;;2.00;1.00;;;;;;;-128.00;-1.00;-1.00;19092;319;7505039;-32
2023/09/19 06:22:42;;;;;;;0.70;0.50;;;;;;;-128.00;-1.00;-1.00;19090;315;7505435;-35
2023/09/19 06:25:12;;;;;;;2.50;1.20;;;;;;;-128.00;-1.00;-1.00;19089;315;7504920;-36
2023/09/19 06:27:42;;;;;;;11.60;1.80;;;;;;;-128.00;-1.00;-1.00;19093;315;7504400;-31
2023/09/19 06:30:09;;;;;;;2.40;1.30;;;;;;;-128.00;-1.00;-1.00;19099;315;7504631;-36
2023/09/19 06:32:35;;;;;;;14.50;1.30;;;;;;;-128.00;-1.00;-1.00;19088;319;7505366;-31
2023/09/19 06:35:01;;;;;;;1.60;1.20;;;;;;;-128.00;-1.00;-1.00;19093;315;7506390;-36
2023/09/19 06:37:27;;;;;;;5.10;1.50;;;;;;;-128.00;-1.00;-1.00;19118;315;7506044;-32
2023/09/19 06:39:53;;;;;;;5.40;1.90;;;;;;;-128.00;-1.00;-1.00;19058;316;7506670;-36
2023/09/19 06:42:19;;;;;;;11.40;1.50;;;;;;;-128.00;-1.00;-1.00;19107;315;7505380;-33
2023/09/19 06:44:45;;;;;;;1.20;1.10;;;;;;;-128.00;-1.00;-1.00;19081;315;7504909;-36
2023/09/19 06:47:10;;;;;;;4.60;1.10;;;;;;;-128.00;-1.00;-1.00;19059;316;7504831;-36
2023/09/19 06:49:36;;;;;;;5.90;0.50;;;;;;;-128.00;-1.00;-1.00;19068;315;7504695;-32
2023/09/19 06:52:03;;;;;;;2.10;0.80;;;;;;;-128.00;-1.00;-1.00;19074;316;7504638;-32
2023/09/19 06:54:34;;;;;;;1.60;0.90;;;;;;;-128.00;-1.00;-1.00;19045;316;7506473;-32
2023/09/19 06:56:59;;;;;;;4.20;1.40;;;;;;;-128.00;-1.00;-1.00;19063;315;7504954;-37
2023/09/19 06:59:25;;;;;;;2.70;0.70;;;;;;;-128.00;-1.00;-1.00;19065;316;7505300;-36
2023/09/19 07:01:51;;;;;;;1.20;0.70;;;;;;;-128.00;-1.00;-1.00;19051;316;7506144;-37
2023/09/19 07:04:19;;;;;;;5.50;0.70;;;;;;;-128.00;-1.00;-1.00;19498;319;7504687;-37
2023/09/19 07:06:49;;;;;;;8.90;0.70;;;;;;;-128.00;-1.00;-1.00;19062;319;7506486;-37
2023/09/19 07:09:16;;;;;;;0.80;0.50;;;;;;;-128.00;-1.00;-1.00;19097;319;7504999;-37
2023/09/19 07:11:42;;;;;;;1.60;0.50;;;;;;;-128.00;-1.00;-1.00;19066;320;7505066;-37
2023/09/19 07:14:11;;;;;;;0.40;0.30;;;;;;;-128.00;-1.00;-1.00;19087;315;7506006;-37
2023/09/19 07:16:39;;;;;;;5.40;0.50;;;;;;;-128.00;-1.00;-1.00;19081;319;7504899;-37
2023/09/19 07:19:05;;;;;;;2.30;0.50;;;;;;;-128.00;-1.00;-1.00;19092;320;7504797;-32
2023/09/19 07:21:32;;;;;;;1.30;0.80;;;;;;;-128.00;-1.00;-1.00;19104;319;7504864;-33
2023/09/19 07:24:03;;;;;;;1.20;0.60;;;;;;;-128.00;-1.00;-1.00;19063;315;7504862;-36
2023/09/19 07:26:29;;;;;;;3.20;0.70;;;;;;;-128.00;-1.00;-1.00;19066;320;7504748;-33
2023/09/19 07:28:56;;;;;;;1.40;0.30;;;;;;;-128.00;-1.00;-1.00;19483;316;7504571;-36
2023/09/19 07:31:22;;;;;;;4.40;0.80;;;;;;;-128.00;-1.00;-1.00;19078;320;7506061;-33
2023/09/19 07:33:48;;;;;;;5.60;0.30;;;;;;;-128.00;-1.00;-1.00;19030;317;7504523;-36
2023/09/19 07:36:14;;;;;;;4.20;1.10;;;;;;;-128.00;-1.00;-1.00;19112;315;7505139;-32
2023/09/19 07:38:41;;;;;;;2.00;0.80;;;;;;;-128.00;-1.00;-1.00;19085;318;7504718;-36
2023/09/19 07:41:09;;;;;;;0.50;0.30;;;;;;;-128.00;-1.00;-1.00;19099;315;7506768;-36
2023/09/19 07:43:35;;;;;;;0.10;0.10;;;;;;;-128.00;-1.00;-1.00;19108;320;7505539;-32
2023/09/19 07:46:08;;;;;;;2.60;0.70;;;;;;;-128.00;-1.00;-1.00;19109;315;7506304;-36
2023/09/19 07:48:40;;;;;;;2.70;0.70;;;;;;;-128.00;-1.00;-1.00;19100;320;7504904;-32
2023/09/19 07:51:07;;;;;;;1.40;0.90;;;;;;;-128.00;-1.00;-1.00;19061;320;7504601;-31
2023/09/19 07:53:34;;;;;;;0.70;0.70;;;;;;;-128.00;-1.00;-1.00;19081;315;7504732;-31
2023/09/19 07:56:07;;;;;;;0.90;0.50;;;;;;;-128.00;-1.00;-1.00;19061;316;7504660;-36
2023/09/19 07:58:33;;;;;;;5.30;2.40;;;;;;;-128.00;-1.00;-1.00;19095;315;7504646;-36
2023/09/19 08:01:03;;;;;;;1.20;1.00;;;;;;;-128.00;-1.00;-1.00;19055;317;7505111;-36
2023/09/19 08:03:29;;;;;;;4.00;1.70;;;;;;;-128.00;-1.00;-1.00;19105;315;7506476;-36
2023/09/19 08:05:59;;;;;;;1.50;1.10;;;;;;;-128.00;-1.00;-1.00;19099;315;7506473;-31
2023/09/19 08:08:26;;;;;;;2.60;0.80;;;;;;;-128.00;-1.00;-1.00;19117;315;7505513;-31
2023/09/19 08:10:58;;;;;;;8.80;1.10;;;;;;;-128.00;-1.00;-1.00;19060;316;7505286;-31
2023/09/19 08:13:24;;;;;;;0.30;0.30;;;;;;;-128.00;-1.00;-1.00;19085;318;7504998;-32
2023/09/19 08:15:53;;;;;;;1.10;0.70;;;;;;;-128.00;-1.00;-1.00;19089;315;7504883;-32
2023/09/19 08:18:21;;;;;;;3.20;1.00;;;;;;;-128.00;-1.00;-1.00;19079;315;7504742;-32
2023/09/19 08:20:50;;;;;;;1.40;0.70;;;;;;;-128.00;-1.00;-1.00;19101;315;7505435;-31
2023/09/19 08:23:18;;;;;;;2.20;0.80;;;;;;;-128.00;-1.00;-1.00;19085;315;7504513;-31
2023/09/19 08:25:43;;;;;;;6.20;1.40;;;;;;;-128.00;-1.00;-1.00;19099;315;7504499;-31
2023/09/19 08:28:12;;;;;;;1.50;0.90;;;;;;;-128.00;-1.00;-1.00;19096;319;7505524;-35
2023/09/19 08:30:40;;;;;;;6.00;1.90;;;;;;;-128.00;-1.00;-1.00;19118;315;7505572;-37
2023/09/19 08:33:06;;;;;;;6.60;1.00;;;;;;;-128.00;-1.00;-1.00;19074;316;7504944;-35
2023/09/19 08:35:32;;;;;;;0.60;0.60;;;;;;;-128.00;-1.00;-1.00;19103;320;7505491;-31
2023/09/19 08:38:03;;;;;;;2.30;0.70;;;;;;;-128.00;-1.00;-1.00;19472;321;7505318;-31
2023/09/19 08:40:36;;;;;;;0.50;0.40;;;;;;;-128.00;-1.00;-1.00;19092;315;7504849;-33
2023/09/19 08:43:01;;;;;;;1.30;0.80;;;;;;;-128.00;-1.00;-1.00;19098;320;7505853;-32
2023/09/19 08:45:28;;;;;;;1.10;0.80;;;;;;;-128.00;-1.00;-1.00;19112;320;7504374;-35
2023/09/19 08:48:02;;;;;;;1.10;0.60;;;;;;;-128.00;-1.00;-1.00;19101;320;7504961;-32
2023/09/19 08:50:28;;;;;;;1.30;0.80;;;;;;;-128.00;-1.00;-1.00;19089;320;7504785;-35
2023/09/19 08:52:55;;;;;;;0.90;0.80;;;;;;;-128.00;-1.00;-1.00;19070;316;7505221;-34
2023/09/19 08:55:26;;;;;;;4.00;1.10;;;;;;;-128.00;-1.00;-1.00;19078;315;7505404;-32
2023/09/19 08:57:52;;;;;;;0.90;0.40;;;;;;;-128.00;-1.00;-1.00;19077;319;7504500;-32
2023/09/19 09:00:20;;;;;;;1.70;1.20;;;;;;;-128.00;-1.00;-1.00;19484;316;7505030;-32
2023/09/19 09:02:47;;;;;;;2.90;1.40;;;;;;;-128.00;-1.00;-1.00;19083;320;7504990;-31
2023/09/19 09:05:14;;;;;;;1.20;0.70;;;;;;;-128.00;-1.00;-1.00;19091;320;7505029;-32
2023/09/19 09:07:40;;;;;;;1.80;0.70;;;;;;;-128.00;-1.00;-1.00;19049;322;7504960;-35
2023/09/19 09:10:06;;;;;;;1.20;0.90;;;;;;;-128.00;-1.00;-1.00;19059;316;7505791;-31
2023/09/19 09:12:32;;;;;;;2.60;0.90;;;;;;;-128.00;-1.00;-1.00;19097;315;7505130;-35
2023/09/19 09:14:58;;;;;;;0.70;0.50;;;;;;;-128.00;-1.00;-1.00;19109;319;7505326;-35
2023/09/19 09:17:24;;;;;;;1.00;0.50;;;;;;;-128.00;-1.00;-1.00;19097;315;7504563;-31
2023/09/19 09:19:53;;;;;;;9.90;2.10;;;;;;;-128.00;-1.00;-1.00;18751;315;8053054;-31
2023/09/19 09:22:21;;;;;;;1.70;1.30;;;;;;;-128.00;-1.00;-1.00;19090;319;7506105;-32
2023/09/19 09:24:53;;;;;;;0.80;0.50;;;;;;;-128.00;-1.00;-1.00;19062;315;7506486;-35
2023/09/19 09:27:19;;;;;;;1.60;1.10;;;;;;;-128.00;-1.00;-1.00;19086;319;7505444;-32
2023/09/19 09:29:47;;;;;;;1.00;0.50;;;;;;;-128.00;-1.00;-1.00;19053;316;7505332;-34
2023/09/19 09:32:26;;;;;;;1.40;0.90;;;;;;;-128.00;-1.00;-1.00;19094;315;7505900;-35
2023/09/19 09:34:56;;;;;;;0.40;0.40;;;;;;;-128.00;-1.00;-1.00;19085;315;7505791;-38
2023/09/19 09:37:22;;;;;;;2.00;0.70;;;;;;;-128.00;-1.00;-1.00;19086;320;7504526;-33
2023/09/19 09:40:12;;;;;;;23.50;1.60;;;;;;;-128.00;-1.00;-1.00;19097;315;7505968;-35
2023/09/19 09:42:41;;;;;;;0.60;0.40;;;;;;;-128.00;-1.00;-1.00;19112;315;7504721;-32
2023/09/19 09:45:16;;;;;;;3.50;0.80;;;;;;;-128.00;-1.00;-1.00;19088;315;7504977;-31
2023/09/19 09:47:56;;;;;;;2.10;1.50;;;;;;;-128.00;-1.00;-1.00;19103;315;7504728;-35
2023/09/19 09:50:44;;;;;;;16.20;2.10;;;;;;;-128.00;-1.00;-1.00;19105;315;7505101;-37
2023/09/19 09:53:29;;;;;;;4.60;1.00;;;;;;;-128.00;-1.00;-1.00;19067;315;7504816;-38
2023/09/19 09:56:06;;;;;;;1.70;1.20;;;;;;;-128.00;-1.00;-1.00;19096;319;7504923;-38
2023/09/19 09:58:36;;;;;;;2.60;0.90;;;;;;;-128.00;-1.00;-1.00;19097;315;7505741;-31
2023/09/19 10:01:08;;;;;;;3.00;1.00;;;;;;;-128.00;-1.00;-1.00;19077;320;7505111;-35
2023/09/19 10:03:39;;;;;;;1.60;0.70;;;;;;;-128.00;-1.00;-1.00;19071;315;7504629;-31
2023/09/19 10:06:11;;;;;;;0.70;0.50;;;;;;;-128.00;-1.00;-1.00;19031;318;7504874;-35
2023/09/19 10:08:37;;;;;;;1.30;0.90;;;;;;;-128.00;-1.00;-1.00;19088;315;7505211;-36
2023/09/19 10:11:15;;;;;;;0.40;0.30;;;;;;;-128.00;-1.00;-1.00;19091;320;7506569;-37
2023/09/19 10:13:42;;;;;;;2.10;1.20;;;;;;;-128.00;-1.00;-1.00;19086;320;7505492;-32
2023/09/19 10:16:09;;;;;;;1.20;0.60;;;;;;;-128.00;-1.00;-1.00;19091;315;7505285;-35
2023/09/19 10:18:36;;;;;;;2.50;1.20;;;;;;;-128.00;-1.00;-1.00;19092;320;7506524;-31
2023/09/19 10:21:04;;;;;;;1.60;0.40;;;;;;;-128.00;-1.00;-1.00;19087;315;7505241;-31
2023/09/19 10:23:29;;;;;;;5.50;0.60;;;;;;;-128.00;-1.00;-1.00;19079;320;7505096;-31
2023/09/19 10:25:57;;;;;;;5.70;0.60;;;;;;;-128.00;-1.00;-1.00;19506;320;7504713;-32
2023/09/19 10:28:22;;;;;;;3.20;1.70;;;;;;;-128.00;-1.00;-1.00;19081;315;7504903;-35
2023/09/19 10:30:52;;;;;;;3.00;0.70;;;;;;;-128.00;-1.00;-1.00;19069;316;7504667;-33
2023/09/19 10:33:20;;;;;;;3.40;1.30;;;;;;;-128.00;-1.00;-1.00;19098;320;7505258;-35
2023/09/19 10:35:55;;;;;;;1.80;1.60;;;;;;;-128.00;-1.00;-1.00;19112;315;7504738;-31
2023/09/19 10:38:24;;;;;;;1.00;1.00;;;;;;;-128.00;-1.00;-1.00;19097;315;7504826;-32
2023/09/19 10:40:52;;;;;;;6.20;0.90;;;;;;;-128.00;-1.00;-1.00;19089;315;7505224;-37
2023/09/19 10:43:19;;;;;;;12.60;0.80;;;;;;;-128.00;-1.00;-1.00;19104;315;7505158;-37
2023/09/19 10:45:49;;;;;;;2.90;1.20;;;;;;;-128.00;-1.00;-1.00;19058;316;7505689;-32
2023/09/19 10:48:18;;;;;;;0.80;0.60;;;;;;;-128.00;-1.00;-1.00;19130;315;7505452;-31
2023/09/19 10:50:49;;;;;;;1.40;0.80;;;;;;;-128.00;-1.00;-1.00;19116;319;7505502;-36
2023/09/19 10:53:15;;;;;;;1.80;0.80;;;;;;;-128.00;-1.00;-1.00;19104;320;7504759;-36
2023/09/19 10:55:40;;;;;;;0.90;0.60;;;;;;;-128.00;-1.00;-1.00;19089;320;7505458;-37
2023/09/19 10:58:14;;;;;;;1.40;0.90;;;;;;;-128.00;-1.00;-1.00;19111;319;7506144;-34
2023/09/19 11:00:51;;;;;;;0.70;0.60;;;;;;;-128.00;-1.00;-1.00;19113;320;7505862;-35
2023/09/19 11:03:23;;;;;;;1.60;0.90;;;;;;;-128.00;-1.00;-1.00;19108;320;7506598;-38
2023/09/19 11:06:09;;;;;;;3.30;0.80;;;;;;;-128.00;-1.00;-1.00;19128;315;7504853;-33
2023/09/19 11:08:56;;;;;;;0.60;0.50;;;;;;;-128.00;-1.00;-1.00;19112;315;7504989;-32
2023/09/19 11:11:39;;;;;;;2.00;1.50;;;;;;;-128.00;-1.00;-1.00;19034;318;7504335;-37
2023/09/19 11:14:35;;;;;;;2.70;0.90;;;;;;;-128.00;-1.00;-1.00;19055;320;7505504;-31
2023/09/19 11:17:31;;;;;;;0.50;0.50;;;;;;;-128.00;-1.00;-1.00;19093;320;7504872;-36
2023/09/19 11:20:25;;;;;;;0.70;0.70;;;;;;;-128.00;-1.00;-1.00;19094;315;7504580;-35
2023/09/19 11:23:22;;;;;;;7.50;1.00;;;;;;;-128.00;-1.00;-1.00;19063;316;7506515;-32
2023/09/19 11:25:48;;;;;;;3.10;1.10;;;;;;;-128.00;-1.00;-1.00;19091;319;7505098;-31
2023/09/19 11:28:31;;;;;;;2.20;1.10;;;;;;;-128.00;-1.00;-1.00;19095;318;7505278;-36
2023/09/19 11:30:58;;;;;;;0.50;0.40;;;;;;;-128.00;-1.00;-1.00;19078;320;7504929;-36
2023/09/19 11:33:28;;;;;;;0.80;0.60;;;;;;;-128.00;-1.00;-1.00;19094;315;7505074;-32
2023/09/19 11:36:01;;;;;;;0.80;0.60;;;;;;;-128.00;-1.00;-1.00;19086;315;7504864;-36
2023/09/19 11:38:33;;;;;;;0.90;0.80;;;;;;;-128.00;-1.00;-1.00;19083;315;7504818;-36
2023/09/19 11:41:26;;;;;;;1.40;1.00;;;;;;;-128.00;-1.00;-1.00;19099;315;7505400;-31
2023/09/19 11:43:58;;;;;;;1.10;0.50;;;;;;;-128.00;-1.00;-1.00;19091;315;7504840;-32
2023/09/19 11:46:24;;;;;;;3.00;0.70;;;;;;;-128.00;-1.00;-1.00;19082;320;7506338;-35
2023/09/19 11:48:50;;;;;;;1.80;0.60;;;;;;;-128.00;-1.00;-1.00;19099;315;7505022;-35
2023/09/19 11:51:26;;;;;;;5.30;0.70;;;;;;;-128.00;-1.00;-1.00;19099;315;7504860;-36
2023/09/19 11:53:56;;;;;;;1.90;0.70;;;;;;;-128.00;-1.00;-1.00;19096;319;7505204;-35
2023/09/19 11:56:24;;;;;;;1.20;0.80;;;;;;;-128.00;-1.00;-1.00;19088;315;7505243;-36
2023/09/19 11:58:53;;;;;;;0.40;0.40;;;;;;;-128.00;-1.00;-1.00;19092;315;7506280;-32
2023/09/19 12:01:24;;;;;;;2.40;1.50;;;;;;;-128.00;-1.00;-1.00;19085;320;7506281;-32
2023/09/19 12:03:56;;;;;;;0.30;0.30;;;;;;;-128.00;-1.00;-1.00;19113;315;7504913;-35
2023/09/19 12:06:23;;;;;;;1.70;0.60;;;;;;;-128.00;-1.00;-1.00;19076;320;7505014;-33
2023/09/19 12:08:50;;;;;;;1.40;0.50;;;;;;;-128.00;-1.00;-1.00;19075;320;7506383;-33
2023/09/19 12:11:17;;;;;;;1.20;0.50;;;;;;;-128.00;-1.00;-1.00;19075;316;7506329;-37
2023/09/19 12:13:44;;;;;;;0.60;0.40;;;;;;;-128.00;-1.00;-1.00;19068;315;7506750;-36
2023/09/19 12:16:15;;;;;;;0.30;0.30;;;;;;;-128.00;-1.00;-1.00;19510;315;7506512;-36
2023/09/19 12:18:44;;;;;;;0.30;0.30;;;;;;;-128.00;-1.00;-1.00;21240;318;7504461;-35
2023/09/19 12:21:27;;;;;;;0.60;0.40;;;;;;;-128.00;-1.00;-1.00;83626;315;4505193;-37